Time;durP1;ratioP1;P1;durP2;ratioP2;P2;SDS_P1;SDS_P2;PMS_P1;PMS_P2;Temp;Humidity;BMP_temperature;BMP_pressure;BME280_temperature;BME280_humidity;BME280_pressure;Samples;Min_cycle;Max_cycle;Signal;HPM_P1;HPM_P2
2022/02/16 00:01:08;;;;;;;;;1.00;1.00;;;;;11.07;74.40;100221.94;5056130;28;45786;-80
2022/02/16 00:03:33;;;;;;;;;0.00;0.00;;;;;11.13;74.30;100221.47;5056609;28;46151;-79
2022/02/16 00:05:58;;;;;;;;;1.00;0.75;;;;;11.08;74.33;100210.50;5056491;28;46117;-81
2022/02/16 00:08:24;;;;;;;;;2.00;0.00;;;;;11.11;74.51;100210.28;5056301;28;45874;-81
2022/02/16 00:14:11;;;;;;;;;0.00;0.00;;;;;11.15;74.38;100190.72;5055677;28;45894;-80
2022/02/16 00:16:37;;;;;;;;;1.00;0.00;;;;;11.09;74.53;100183.34;5056116;28;45596;-80
2022/02/16 00:19:03;;;;;;;;;0.00;0.00;;;;;10.95;74.34;100153.00;5056262;28;45733;-79
2022/02/16 00:21:28;;;;;;;;;0.25;0.00;;;;;11.13;74.62;100184.75;5055748;28;46487;-81
2022/02/16 00:23:54;;;;;;;;;1.00;1.00;;;;;11.09;74.61;100172.88;5056055;28;45572;-80
2022/02/16 00:29:41;;;;;;;;;0.25;0.25;;;;;11.11;74.67;100182.28;5055541;28;45723;-79
2022/02/16 00:32:07;;;;;;;;;0.00;0.00;;;;;11.11;74.41;100178.84;5055847;28;45648;-78
2022/02/16 00:34:32;;;;;;;;;0.00;0.00;;;;;11.08;74.51;100173.81;5055958;28;45912;-79
2022/02/16 00:36:58;;;;;;;;;0.00;0.00;;;;;11.12;74.63;100164.78;5055618;28;45722;-78
2022/02/16 00:39:23;;;;;;;;;0.00;0.00;;;;;11.11;74.52;100158.69;5055859;28;45648;-79
2022/02/16 00:41:49;;;;;;;;;0.00;0.00;;;;;11.03;74.52;100139.28;5055470;28;45529;-80
2022/02/16 00:44:14;;;;;;;;;0.00;0.00;;;;;11.12;74.77;100164.78;5055703;28;45603;-79
2022/02/16 00:46:40;;;;;;;;;1.00;0.00;;;;;11.13;74.71;100158.53;5055553;28;45860;-79
2022/02/16 00:49:05;;;;;;;;;0.00;0.00;;;;;11.05;74.96;100134.75;5055468;28;45773;-80
2022/02/16 00:51:31;;;;;;;;;0.00;0.00;;;;;11.05;74.65;100138.22;5054948;28;47324;-79
2022/02/16 00:53:56;;;;;;;;;0.00;0.00;;;;;11.12;74.71;100149.84;5055448;28;45622;-80
2022/02/16 00:59:43;;;;;;;;;0.00;0.00;;;;;11.08;75.13;100140.56;5054922;28;45665;-81
2022/02/16 01:02:09;;;;;;;;;1.00;0.00;;;;;11.11;74.78;100147.38;5055151;28;46451;-79
2022/02/16 01:04:34;;;;;;;;;0.00;0.00;;;;;11.08;75.10;100124.84;5055289;28;46484;-80
2022/02/16 01:07:00;;;;;;;;;0.00;0.00;;;;;11.11;75.11;100129.03;5054795;28;45635;-80
2022/02/16 01:09:26;;;;;;;;;0.00;0.00;;;;;10.98;75.01;100100.34;5055027;28;45628;-79
2022/02/16 01:11:51;;;;;;;;;0.00;0.00;;;;;11.10;75.37;100115.06;5054994;28;45732;-80
2022/02/16 01:14:17;;;;;;;;;0.00;0.00;;;;;11.10;75.18;100109.84;5055008;28;45637;-80
2022/02/16 01:16:42;;;;;;;;;0.00;0.00;;;;;11.08;75.27;100103.03;5055239;28;45718;-80
2022/02/16 01:19:08;;;;;;;;;0.00;0.00;;;;;11.09;75.65;100092.44;5055285;28;45737;-78
2022/02/16 01:21:33;;;;;;;;;0.00;0.00;;;;;11.04;75.35;100080.66;5054276;28;46850;-80
2022/02/16 01:23:59;;;;;;;;;0.00;0.00;;;;;11.10;75.20;100095.88;5055037;28;46118;-80
2022/02/16 01:29:46;;;;;;;;;0.00;0.00;;;;;10.97;75.45;100061.97;5054395;28;45831;-80
2022/02/16 01:32:11;;;;;;;;;0.00;0.00;;;;;11.11;75.36;100084.44;5054600;28;46419;-79
2022/02/16 01:34:37;;;;;;;;;0.00;0.00;;;;;11.08;75.63;100075.03;5054827;28;45627;-80
2022/02/16 01:37:02;;;;;;;;;0.00;0.00;;;;;11.11;75.22;100074.81;5054542;28;46009;-80
2022/02/16 01:39:28;;;;;;;;;0.00;0.00;;;;;11.13;75.23;100072.88;5054616;28;45848;-81
2022/02/16 01:45:15;;;;;;;;;0.00;0.00;;;;;11.16;75.26;100066.56;5054485;28;46036;-82
2022/02/16 01:47:40;;;;;;;;;0.00;0.00;;;;;11.17;75.17;100065.59;5054756;28;45665;-81
2022/02/16 01:50:07;;;;;;;;;0.00;0.00;;;;;11.17;75.17;100061.19;5054636;28;45698;-79
2022/02/16 01:52:34;;;;;;;;;0.00;0.00;;;;;11.14;75.31;100060.59;5054433;28;46972;-80
2022/02/16 01:54:59;;;;;;;;;0.50;0.00;;;;;11.17;75.23;100053.31;5055288;28;46375;-78
2022/02/16 01:57:25;;;;;;;;;0.00;0.00;;;;;11.18;74.97;100060.22;5055117;28;45727;-82
2022/02/16 01:59:52;;;;;;;;;0.00;0.00;;;;;11.12;75.33;100028.44;5055926;28;45799;-79
2022/02/16 02:02:18;;;;;;;;;0.00;0.00;;;;;11.16;75.35;100041.16;5055693;28;45521;-81
2022/02/16 02:04:43;;;;;;;;;0.00;0.00;;;;;11.10;75.32;100018.09;5055362;28;46116;-80
2022/02/16 02:07:09;;;;;;;;;0.00;0.00;;;;;11.14;75.37;100018.66;5054874;28;45628;-83
2022/02/16 02:09:35;;;;;;;;;0.00;0.00;;;;;11.16;75.61;100024.59;5054887;28;45861;-84
2022/02/16 02:15:23;;;;;;;;;0.00;0.00;;;;;11.14;75.54;100016.84;5059241;28;45795;-80
2022/02/16 02:17:50;;;;;;;;;0.00;0.00;;;;;11.09;75.52;100013.78;5060014;28;45599;-78
2022/02/16 02:20:28;;;;;;;;;0.00;0.00;;;;;11.13;75.47;100014.34;5059242;28;45529;-85
2022/02/16 02:22:54;;;;;;;;;0.00;0.00;;;;;11.13;75.97;100006.50;5057525;28;45777;-83
2022/02/16 02:25:20;;;;;;;;;0.00;0.00;;;;;11.11;75.76;100006.63;5056704;28;47026;-80
2022/02/16 02:27:46;;;;;;;;;0.00;0.00;;;;;11.07;75.88;99996.50;5056436;28;45569;-82
2022/02/16 02:30:13;;;;;;;;;0.00;0.00;;;;;11.03;75.81;99985.47;5056947;28;45603;-86
2022/02/16 02:32:42;;;;;;;;;0.00;0.00;;;;;11.11;76.22;99996.16;5055218;28;45582;-79
2022/02/16 02:35:10;;;;;;;;;0.00;0.00;;;;;11.12;76.01;99986.50;5055344;28;46281;-80
2022/02/16 02:37:37;;;;;;;;;0.00;0.00;;;;;11.00;76.31;99958.69;5055713;28;45541;-78
2022/02/16 02:40:03;;;;;;;;;0.00;0.00;;;;;11.01;76.39;99952.50;5056174;28;45774;-78
2022/02/16 02:42:28;;;;;;;;;0.00;0.00;;;;;11.05;76.70;99957.34;5056731;28;45664;-77
2022/02/16 02:44:54;;;;;;;;;1.00;0.00;;;;;11.11;76.62;99961.25;5041039;28;48343;-77
2022/02/16 02:47:19;;;;;;;;;0.00;0.00;;;;;11.09;76.48;99961.34;5042107;28;45588;-79
2022/02/16 02:49:45;;;;;;;;;0.00;0.00;;;;;10.97;76.74;99936.16;5060129;28;45849;-78
2022/02/16 02:52:10;;;;;;;;;0.00;0.00;;;;;11.13;76.69;99940.94;5060710;28;46461;-79
2022/02/16 02:54:36;;;;;;;;;0.00;0.00;;;;;11.14;76.63;99937.38;5059891;28;47077;-81
2022/02/16 03:00:23;;;;;;;;;0.00;0.00;;;;;11.17;76.58;99930.09;5056030;28;45584;-77
2022/02/16 03:02:49;;;;;;;;;0.00;0.00;;;;;11.16;76.70;99930.22;5054146;28;47779;-81
2022/02/16 03:05:14;;;;;;;;;0.00;0.00;;;;;11.17;76.71;99943.22;5055955;28;47048;-80
2022/02/16 03:07:40;;;;;;;;;0.00;0.00;;;;;11.17;76.64;99937.13;5055014;28;45631;-83
2022/02/16 03:10:06;;;;;;;;;0.00;0.00;;;;;11.10;76.59;99917.63;5056410;28;45853;-83
2022/02/16 03:15:54;;;;;;;;;0.00;0.00;;;;;11.19;76.80;99915.06;5062510;28;45538;-79
2022/02/16 03:18:23;;;;;;;;;0.00;0.00;;;;;11.23;76.76;99902.50;5063009;28;45582;-80
2022/02/16 03:20:49;;;;;;;;;0.00;0.00;;;;;11.23;76.81;99884.97;5061367;28;45730;-80
2022/02/16 03:23:15;;;;;;;;;0.00;0.00;;;;;11.20;76.78;99893.13;5063580;28;46942;-80
2022/02/16 03:25:40;;;;;;;;;0.00;0.00;;;;;11.25;76.94;99890.94;5062517;28;45466;-78
2022/02/16 03:28:05;;;;;;;;;0.00;0.00;;;;;11.26;77.03;99883.91;5064760;28;45510;-78
2022/02/16 03:30:31;;;;;;;;;0.00;0.00;;;;;11.26;77.13;99887.38;5071508;28;45434;-77
2022/02/16 03:32:57;;;;;;;;;0.00;0.00;;;;;11.29;77.11;99883.63;5073759;28;45645;-79
2022/02/16 03:35:22;;;;;;;;;0.00;0.00;;;;;11.27;77.07;99880.34;5073569;28;46150;-77
2022/02/16 03:37:48;;;;;;;;;0.00;0.00;;;;;11.18;77.17;99852.25;5071307;28;45576;-81
2022/02/16 03:40:13;;;;;;;;;0.00;0.00;;;;;11.27;77.21;99881.16;5060580;28;45550;-77
2022/02/16 03:46:02;;;;;;;;;0.00;0.00;;;;;11.28;77.21;99853.94;5060361;28;45749;-81
2022/02/16 03:48:28;;;;;;;;;0.00;0.00;;;;;11.32;77.27;99865.03;5058389;28;45704;-79
2022/02/16 03:50:53;;;;;;;;;0.00;0.00;;;;;11.28;77.25;99858.41;5059173;28;45475;-80
2022/02/16 03:53:20;;;;;;;;;0.00;0.00;;;;;11.34;77.57;99860.47;5058741;28;46453;-80
2022/02/16 03:55:45;;;;;;;;;0.00;0.00;;;;;11.34;77.47;99849.97;5057795;28;46398;-85
2022/02/16 03:58:10;;;;;;;;;0.00;0.00;;;;;11.23;77.60;99824.69;5058131;28;45876;-85
2022/02/16 04:00:36;;;;;;;;;0.00;0.00;;;;;11.22;77.19;99828.28;5058256;28;45815;-78
2022/02/16 04:03:08;;;;;;;;;0.00;0.00;;;;;11.35;77.43;99857.72;5058241;28;45687;-82
2022/02/16 04:05:34;;;;;;;;;0.00;0.00;;;;;11.38;77.76;99861.03;5057680;28;45616;-83
2022/02/16 04:08:00;;;;;;;;;0.00;0.00;;;;;11.40;77.74;99852.06;5057360;28;45683;-81
2022/02/16 04:10:25;;;;;;;;;0.00;0.00;;;;;11.38;77.67;99846.16;5057970;28;45616;-79
2022/02/16 04:16:12;;;;;;;;;0.00;0.00;;;;;11.43;77.68;99843.13;5058129;28;45672;-83
2022/02/16 04:18:38;;;;;;;;;0.00;0.00;;;;;11.44;77.56;99839.53;5057223;28;45561;-86
2022/02/16 04:21:03;;;;;;;;;0.00;0.00;;;;;11.39;77.60;99829.44;5056930;28;45537;-82
2022/02/16 04:23:29;;;;;;;;;0.00;0.00;;;;;11.48;77.51;99840.94;5058696;28;45767;-82
2022/02/16 04:25:54;;;;;;;;;0.00;0.00;;;;;11.46;77.84;99846.28;5059353;28;46169;-82
2022/02/16 04:28:21;;;;;;;;;0.00;0.00;;;;;11.50;78.01;99847.69;5059197;28;45729;-77
2022/02/16 04:30:47;;;;;;;;;0.00;0.00;;;;;11.45;77.82;99841.19;5059011;28;45795;-81
2022/02/16 04:33:12;;;;;;;;;0.00;0.00;;;;;11.53;78.05;99842.19;5057279;28;46378;-84
2022/02/16 04:35:38;;;;;;;;;0.00;0.00;;;;;11.55;77.83;99845.47;5057575;28;46812;-83
2022/02/16 04:38:04;;;;;;;;;0.00;0.00;;;;;11.56;77.90;99847.16;5056927;28;45673;-79
2022/02/16 04:40:31;;;;;;;;;0.00;0.00;;;;;11.58;77.95;99847.84;5056624;28;45672;-79
2022/02/16 04:46:18;;;;;;;;;0.00;0.00;;;;;11.62;77.96;99838.75;5057537;28;46125;-79
2022/02/16 04:48:44;;;;;;;;;0.00;0.00;;;;;11.64;77.82;99841.25;5057985;28;45537;-81
2022/02/16 04:51:10;;;;;;;;;0.00;0.00;;;;;11.64;77.94;99826.34;5057503;28;45581;-79
2022/02/16 04:53:35;;;;;;;;;0.00;0.00;;;;;11.69;78.09;99812.81;5058315;28;45725;-81
2022/02/16 04:56:02;;;;;;;;;0.00;0.00;;;;;11.71;78.08;99832.69;5039575;28;45936;-82
2022/02/16 05:01:49;;;;;;;;;0.00;0.00;;;;;11.74;78.24;99826.38;5057464;28;45646;-79
2022/02/16 05:04:14;;;;;;;;;0.00;0.00;;;;;11.77;77.99;99820.84;5057276;28;46548;-80
2022/02/16 05:06:41;;;;;;;;;0.00;0.00;;;;;11.80;78.46;99825.00;5057347;28;45907;-84
2022/02/16 05:09:10;;;;;;;;;0.00;0.00;;;;;11.74;78.49;99814.09;5058908;28;45721;-77
2022/02/16 05:11:35;;;;;;;;;0.00;0.00;;;;;11.83;78.47;99819.47;5058782;28;45577;-79
2022/02/16 05:14:01;;;;;;;;;1.00;0.00;;;;;11.76;78.56;99803.47;5059122;28;46243;-80
2022/02/16 05:16:26;;;;;;;;;0.00;0.00;;;;;11.86;78.75;99824.47;5058661;28;47041;-80
2022/02/16 05:18:54;;;;;;;;;0.00;0.00;;;;;11.76;78.55;99799.06;5057019;28;45689;-80
2022/02/16 05:21:19;;;;;;;;;0.00;0.00;;;;;11.90;78.69;99831.09;5056368;28;45659;-78
2022/02/16 05:23:45;;;;;;;;;0.00;0.00;;;;;11.81;78.71;99795.19;5056450;28;45564;-77
2022/02/16 05:26:10;;;;;;;;;0.00;0.00;;;;;11.84;78.88;99821.97;5057668;28;46064;-81
2022/02/16 05:31:58;;;;;;;;;0.00;0.00;;;;;12.00;79.04;99821.44;5059831;28;45688;-79
2022/02/16 05:34:23;;;;;;;;;0.00;0.00;;;;;11.99;79.24;99811.88;5058070;28;48314;-80
2022/02/16 05:36:48;;;;;;;;;0.00;0.00;;;;;12.03;78.96;99832.50;5062446;28;46309;-79
2022/02/16 05:39:14;;;;;;;;;0.00;0.00;;;;;12.05;79.20;99806.09;5059222;28;45626;-78
2022/02/16 05:41:39;;;;;;;;;0.00;0.00;;;;;12.06;79.22;99810.38;5062121;28;45706;-78
2022/02/16 05:44:05;;;;;;;;;0.00;0.00;;;;;11.95;79.05;99800.84;5063731;28;46447;-79
2022/02/16 05:46:31;;;;;;;;;0.00;0.00;;;;;12.10;79.40;99827.50;5064915;28;46383;-77
2022/02/16 05:48:56;;;;;;;;;0.00;0.00;;;;;12.01;79.38;99808.19;5064539;28;45586;-82
2022/02/16 05:51:23;;;;;;;;;0.00;0.00;;;;;12.15;79.64;99828.75;5074492;28;45560;-78
2022/02/16 05:53:48;;;;;;;;;0.00;0.00;;;;;12.18;79.19;99838.16;5076210;28;45650;-79
2022/02/16 05:56:14;;;;;;;;;0.00;0.00;;;;;12.19;79.53;99830.16;5075884;28;45455;-79
2022/02/16 06:02:03;;;;;;;;;0.00;0.00;;;;;12.23;79.40;99838.59;5073400;28;45483;-83
2022/02/16 06:04:33;;;;;;;;;0.00;0.00;;;;;12.25;79.40;99830.56;5059474;28;47063;-80
2022/02/16 06:07:03;;;;;;;;;0.00;0.00;;;;;12.20;79.16;99813.41;5075301;28;46299;-84
2022/02/16 06:09:29;;;;;;;;;0.00;0.00;;;;;12.15;79.32;99820.03;5068462;28;45677;-87
2022/02/16 06:11:57;;;;;;;;;0.00;0.00;;;;;12.34;79.01;99840.25;5058039;28;45620;-87
2022/02/16 06:14:25;;;;;;;;;0.00;0.00;;;;;12.33;78.97;99833.31;5056600;28;45793;-86
2022/02/16 06:16:50;;;;;;;;;0.00;0.00;;;;;12.40;78.96;99845.78;5057395;28;45716;-87
2022/02/16 06:19:15;;;;;;;;;0.00;0.00;;;;;12.42;78.91;99845.59;5038394;28;45628;-82
2022/02/16 06:21:41;;;;;;;;;0.00;0.00;;;;;12.40;79.18;99831.81;5056709;28;45631;-86
2022/02/16 06:24:08;;;;;;;;;0.00;0.00;;;;;12.39;79.29;99827.50;5039303;28;46443;-81
2022/02/16 06:26:33;;;;;;;;;0.00;0.00;;;;;12.48;78.98;99859.03;5056474;28;47440;-80
2022/02/16 06:32:23;;;;;;;;;0.00;0.00;;;;;12.36;79.01;99789.22;5056854;28;45791;-87
2022/02/16 06:34:52;;;;;;;;;0.00;0.00;;;;;12.44;78.68;99820.03;5058400;28;45664;-88
2022/02/16 06:37:17;;;;;;;;;0.00;0.00;;;;;12.38;78.78;99800.41;5057758;28;47357;-86
2022/02/16 06:39:43;;;;;;;;;0.00;0.00;;;;;12.63;78.99;99862.88;5039437;28;45751;-81
2022/02/16 06:42:08;;;;;;;;;0.00;0.00;;;;;12.50;78.84;99827.38;5057942;28;45856;-83
2022/02/16 06:44:34;;;;;;;;;0.00;0.00;;;;;12.56;78.82;99835.53;5054831;28;46138;-86
2022/02/16 06:46:59;;;;;;;;;0.00;0.00;;;;;12.59;78.66;99829.97;5038464;28;45712;-79
2022/02/16 06:49:25;;;;;;;;;0.00;0.00;;;;;12.70;78.74;99839.50;5056727;28;45678;-84
2022/02/16 06:51:51;;;;;;;;;0.00;0.00;;;;;12.73;78.70;99846.28;5056293;28;45577;-88
2022/02/16 06:54:17;;;;;;;;;0.00;0.00;;;;;12.67;78.87;99842.41;5059196;28;45647;-88
2022/02/16 06:56:42;;;;;;;;;0.00;0.00;;;;;12.68;78.63;99845.88;5041092;28;46157;-84
2022/02/16 07:02:29;;;;;;;;;0.00;0.00;;;;;12.76;79.23;99885.41;5057034;28;45507;-89
2022/02/16 07:04:55;;;;;;;;;0.00;0.00;;;;;12.84;79.14;99885.56;5058832;28;46780;-87
2022/02/16 07:07:20;;;;;;;;;0.00;0.00;;;;;12.87;79.07;99869.47;5044723;28;46194;-83
2022/02/16 07:09:45;;;;;;;;;0.00;0.00;;;;;12.83;79.09;99862.84;5061779;28;45560;-88
2022/02/16 07:12:11;;;;;;;;;0.00;0.00;;;;;12.92;79.02;99883.88;5058017;28;45843;-87
2022/02/16 07:18:01;;;;;;;;;0.00;0.00;;;;;12.92;78.89;99889.13;5058742;28;45987;-80
2022/02/16 07:20:27;;;;;;;;;0.00;0.00;;;;;12.99;78.37;99892.84;5061124;28;45736;-85
2022/02/16 07:22:52;;;;;;;;;0.00;0.00;;;;;13.02;78.62;99886.47;5058515;28;46082;-83
2022/02/16 07:25:18;;;;;;;;;0.00;0.00;;;;;13.04;78.54;99879.28;5055045;28;46848;-83
2022/02/16 07:27:43;;;;;;;;;0.00;0.00;;;;;13.06;78.67;99873.88;5056590;28;46079;-85
2022/02/16 07:30:11;;;;;;;;;0.00;0.00;;;;;13.09;78.91;99869.16;5055817;28;45714;-77
2022/02/16 07:32:39;;;;;;;;;0.00;0.00;;;;;13.14;78.53;99868.75;5038670;28;45642;-80
2022/02/16 07:35:10;;;;;;;;;0.00;0.00;;;;;13.16;78.31;99870.28;5057249;28;46597;-79
2022/02/16 07:37:35;;;;;;;;;0.00;0.00;;;;;13.20;78.17;99869.00;5062008;28;45714;-84
2022/02/16 07:40:05;;;;;;;;;0.00;0.00;;;;;13.10;78.58;99849.78;5075268;22;45812;-89
2022/02/16 07:42:30;;;;;;;;;0.00;0.00;;;;;13.17;78.15;99863.22;5014285;28;45822;-90
2022/02/16 07:44:56;;;;;;;;;0.00;0.00;;;;;13.27;78.43;99870.09;5053991;28;45709;-88
2022/02/16 07:47:22;;;;;;;;;0.00;0.00;;;;;13.14;78.22;99853.81;5052590;28;48656;-84
2022/02/16 07:49:48;;;;;;;;;0.00;0.00;;;;;13.20;78.17;99858.50;5050818;28;45697;-89
2022/02/16 07:52:14;;;;;;;;;0.00;0.00;;;;;13.35;78.25;99882.50;5045707;28;45585;-88
2022/02/16 07:54:39;;;;;;;;;0.00;0.00;;;;;13.35;78.06;99898.31;5058395;28;45562;-86
2022/02/16 07:57:06;;;;;;;;;0.00;0.00;;;;;13.36;78.35;99902.59;5049539;28;45690;-91
2022/02/16 07:59:32;;;;;;;;;0.75;0.00;;;;;13.38;78.01;99905.91;5034646;28;46030;-90
2022/02/16 08:01:57;;;;;;;;;0.00;0.00;;;;;13.35;77.96;99891.25;5060995;28;45842;-89
2022/02/16 08:04:24;;;;;;;;;0.00;0.00;;;;;13.35;78.45;99887.78;5040074;28;46226;-91
2022/02/16 08:06:50;;;;;;;;;0.00;0.00;;;;;13.36;77.98;99876.28;5056905;28;46476;-84
2022/02/16 08:09:16;;;;;;;;;1.00;0.00;;;;;13.39;78.44;99871.56;5023861;28;45762;-91
2022/02/16 08:11:44;;;;;;;;;0.00;0.00;;;;;13.38;77.89;99871.72;5054344;28;45551;-84
2022/02/16 08:14:10;;;;;;;;;0.25;0.00;;;;;13.50;77.70;99880.22;5036619;28;45824;-82
2022/02/16 08:16:36;;;;;;;;;0.00;0.00;;;;;13.54;77.73;99885.09;5056455;28;46603;-85
2022/02/16 08:19:03;;;;;;;;;0.00;0.00;;;;;13.57;77.92;99887.41;5058971;28;45788;-84
2022/02/16 08:21:29;;;;;;;;;0.50;0.50;;;;;13.59;78.26;99898.63;5059060;28;45806;-81
2022/02/16 08:23:55;;;;;;;;;1.00;0.00;;;;;13.62;77.96;99900.97;5043679;28;46310;-86
2022/02/16 08:26:20;;;;;;;;;0.00;0.00;;;;;13.65;77.66;99915.66;5057277;28;45991;-83
2022/02/16 08:28:46;;;;;;;;;0.00;0.00;;;;;13.58;77.67;99917.19;5056653;28;45875;-83
2022/02/16 08:31:12;;;;;;;;;0.00;0.00;;;;;13.61;78.35;99906.34;5048275;28;45717;-84
2022/02/16 08:33:38;;;;;;;;;0.50;0.00;;;;;13.52;78.33;99892.28;5052906;28;47439;-84
2022/02/16 08:36:05;;;;;;;;;0.50;0.00;;;;;13.63;78.46;99913.16;5036736;28;47945;-82
2022/02/16 08:38:30;;;;;;;;;0.00;0.00;;;;;13.68;79.06;99918.81;5046578;28;45762;-84
2022/02/16 08:40:56;;;;;;;;;0.00;0.00;;;;;13.66;79.16;99909.38;5046250;28;45675;-81
2022/02/16 08:43:21;;;;;;;;;0.25;0.00;;;;;13.68;79.20;99910.91;5038462;28;47281;-78
2022/02/16 08:45:47;;;;;;;;;0.00;0.00;;;;;13.68;79.29;99913.53;5047780;28;45784;-80
2022/02/16 08:48:12;;;;;;;;;0.00;0.00;;;;;13.73;78.58;99913.09;5052681;28;45736;-83
2022/02/16 08:50:38;;;;;;;;;0.00;0.00;;;;;13.68;78.43;99899.53;5048428;28;46869;-84
2022/02/16 08:53:03;;;;;;;;;0.00;0.00;;;;;13.76;78.47;99908.38;5058118;28;46438;-81
2022/02/16 08:55:29;;;;;;;;;0.00;0.00;;;;;13.77;78.09;99906.56;5049466;28;46987;-78
2022/02/16 08:57:54;;;;;;;;;1.00;0.00;;;;;13.84;77.79;99899.75;5062757;28;46064;-81
2022/02/16 09:00:20;;;;;;;;;0.00;0.00;;;;;13.88;78.02;99906.34;5052213;28;46051;-82
2022/02/16 09:02:46;;;;;;;;;0.00;0.00;;;;;13.93;77.65;99924.38;5035720;28;46477;-81
2022/02/16 09:05:11;;;;;;;;;0.00;0.00;;;;;13.96;77.91;99929.34;5035491;28;47209;-83
2022/02/16 09:07:37;;;;;;;;;0.00;0.00;;;;;13.98;77.36;99930.84;5051358;28;46034;-83
2022/02/16 09:10:08;;;;;;;;;1.00;1.00;;;;;14.02;77.44;99934.03;5052939;28;45762;-83
2022/02/16 09:12:34;;;;;;;;;0.00;0.00;;;;;13.90;77.15;99899.16;5050561;28;45681;-83
2022/02/16 09:15:02;;;;;;;;;0.00;0.00;;;;;13.85;77.42;99885.59;5041698;28;47438;-83
2022/02/16 09:17:28;;;;;;;;;0.00;0.00;;;;;13.97;76.88;99912.56;5035803;28;45956;-81
2022/02/16 09:19:54;;;;;;;;;0.00;0.00;;;;;14.08;76.90;99926.38;5050514;28;46134;-82
2022/02/16 09:22:22;;;;;;;;;0.00;0.00;;;;;14.19;76.82;99941.13;5050475;28;45585;-84
2022/02/16 09:24:49;;;;;;;;;0.00;0.00;;;;;14.23;76.95;99939.84;5025310;28;46195;-81
2022/02/16 09:27:16;;;;;;;;;0.00;0.00;;;;;14.26;76.53;99945.63;5044943;28;45844;-82
2022/02/16 09:29:42;;;;;;;;;0.00;0.00;;;;;14.28;76.62;99938.44;5035710;28;45793;-88
2022/02/16 09:32:08;;;;;;;;;0.00;0.00;;;;;14.25;76.48;99972.16;5051002;28;45877;-84
2022/02/16 09:34:34;;;;;;;;;0.00;0.00;;;;;14.13;76.40;99928.53;5035596;28;46031;-82
2022/02/16 09:36:59;;;;;;;;;0.00;0.00;;;;;14.30;76.15;99949.63;5031974;28;46062;-81
2022/02/16 09:39:25;;;;;;;;;0.00;0.00;;;;;14.31;76.34;99945.19;5043336;28;46007;-85
2022/02/16 09:41:51;;;;;;;;;0.00;0.00;;;;;14.41;76.15;99953.09;5053090;28;46492;-82
2022/02/16 09:44:33;;;;;;;;;0.00;0.00;;;;;14.37;75.52;99947.25;5035028;28;47309;-83
2022/02/16 09:47:01;;;;;;;;;0.00;0.00;;;;;14.44;75.65;99942.22;5052462;28;45729;-85
2022/02/16 09:49:26;;;;;;;;;0.00;0.00;;;;;14.42;75.72;99946.81;5053409;28;45688;-83
2022/02/16 09:51:52;;;;;;;;;0.00;0.00;;;;;14.51;75.92;99959.94;5052462;28;46612;-86
2022/02/16 09:54:17;;;;;;;;;0.00;0.00;;;;;14.41;75.45;99940.75;5061278;28;45830;-87
2022/02/16 09:56:44;;;;;;;;;0.00;0.00;;;;;14.30;75.60;99911.94;5069458;28;45875;-83
2022/02/16 09:59:11;;;;;;;;;0.00;0.00;;;;;14.59;75.29;99960.00;5060489;28;45305;-82
2022/02/16 10:02:02;;;;;;;;;0.00;0.00;;;;;14.64;75.40;99955.09;5043418;28;48355;-83
2022/02/16 10:04:31;;;;;;;;;0.00;0.00;;;;;14.70;75.03;99961.59;5044415;28;47629;-82
2022/02/16 10:06:57;;;;;;;;;0.50;0.00;;;;;14.73;74.89;99961.31;5066917;28;45716;-83
2022/02/16 10:09:28;;;;;;;;;0.00;0.00;;;;;14.76;74.95;99957.50;5038228;28;45645;-82
2022/02/16 10:11:56;;;;;;;;;0.00;0.00;;;;;14.80;75.06;99958.84;5050044;28;45775;-81
2022/02/16 10:14:24;;;;;;;;;0.00;0.00;;;;;14.70;74.39;99945.75;5054257;28;45892;-84
2022/02/16 10:16:50;;;;;;;;;0.00;0.00;;;;;14.86;74.44;99960.91;5056108;28;45568;-82
2022/02/16 10:19:16;;;;;;;;;0.00;0.00;;;;;14.84;74.48;99947.88;5058275;28;45616;-81
2022/02/16 10:22:03;;;;;;;;;0.00;0.00;;;;;14.85;74.43;99948.69;5055759;28;46362;-79
2022/02/16 10:24:28;;;;;;;;;0.00;0.00;;;;;14.91;74.42;99956.00;5053174;28;45599;-83
2022/02/16 10:26:57;;;;;;;;;0.00;0.00;;;;;14.97;73.97;99948.28;5051656;28;45751;-81
2022/02/16 10:29:33;;;;;;;;;0.00;0.00;;;;;14.85;74.36;99944.22;5051492;28;46178;-80
2022/02/16 10:31:59;;;;;;;;;0.00;0.00;;;;;15.01;74.30;99943.53;5050658;28;47205;-81
2022/02/16 10:34:53;;;;;;;;;0.00;0.00;;;;;15.15;73.89;99964.09;5050865;28;45626;-79
2022/02/16 10:37:30;;;;;;;;;0.00;0.00;;;;;14.90;74.15;99920.06;5039233;28;45767;-83
2022/02/16 10:39:59;;;;;;;;;0.00;0.00;;;;;15.17;73.95;99982.44;5032369;28;45712;-81
2022/02/16 10:42:25;;;;;;;;;0.00;0.00;;;;;15.24;74.16;99991.38;5048387;28;47506;-79
2022/02/16 10:45:05;;;;;;;;;0.00;0.00;;;;;15.17;74.27;99956.03;5051782;28;46068;-80
2022/02/16 10:47:50;;;;;;;;;0.00;0.00;;;;;15.23;74.52;99974.69;5051814;28;45840;-78
2022/02/16 10:50:15;;;;;;;;;0.00;0.00;;;;;15.21;74.66;99968.75;5053702;28;46365;-80
2022/02/16 10:52:49;;;;;;;;;0.00;0.00;;;;;15.19;74.90;99975.16;5043075;28;45965;-78
2022/02/16 10:55:14;;;;;;;;;0.00;0.00;;;;;15.08;75.43;99987.63;5042483;28;45677;-81
2022/02/16 10:57:41;;;;;;;;;0.00;0.00;;;;;15.10;75.59;99996.22;5045901;28;45737;-82
2022/02/16 11:00:07;;;;;;;;;0.00;0.00;;;;;15.06;75.81;100002.78;5047314;28;45862;-80
2022/02/16 11:02:34;;;;;;;;;0.00;0.00;;;;;14.95;75.66;99981.09;5046347;28;46651;-83
2022/02/16 11:05:01;;;;;;;;;0.00;0.00;;;;;15.03;75.41;100004.91;5019320;28;47265;-82
2022/02/16 11:07:27;;;;;;;;;0.00;0.00;;;;;14.95;75.83;100000.38;5053504;28;45870;-85
2022/02/16 11:09:57;;;;;;;;;0.00;0.00;;;;;15.00;76.38;100008.69;5053561;28;45831;-83
2022/02/16 11:12:26;;;;;;;;;0.50;0.00;;;;;15.02;76.15;100026.97;5038503;28;45729;-85
2022/02/16 11:14:53;;;;;;;;;1.00;0.00;;;;;14.92;76.33;100002.50;5050004;28;45965;-83
2022/02/16 11:17:23;;;;;;;;;0.00;0.00;;;;;14.95;76.87;100018.03;5053521;28;45587;-86
2022/02/16 11:19:48;;;;;;;;;0.50;0.00;;;;;14.92;77.00;100010.41;5025725;28;45670;-82
2022/02/16 11:22:18;;;;;;;;;0.00;0.00;;;;;14.90;76.75;100007.91;5056438;28;47827;-81
2022/02/16 11:24:53;;;;;;;;;0.00;0.00;;;;;14.86;76.93;100016.28;5028914;28;47444;-83
2022/02/16 11:27:29;;;;;;;;;0.00;0.00;;;;;14.83;76.73;100020.06;5049533;28;45835;-80
2022/02/16 11:29:59;;;;;;;;;0.75;0.00;;;;;14.83;76.95;100024.50;5049760;28;45542;-80
2022/02/16 11:32:36;;;;;;;;;0.00;0.00;;;;;14.68;76.92;99998.63;5056801;28;46931;-81
2022/02/16 11:35:24;;;;;;;;;0.75;0.00;;;;;14.85;76.95;100022.53;5058517;28;46019;-81
2022/02/16 11:38:11;;;;;;;;;0.75;0.00;;;;;14.86;77.09;100022.38;5056426;28;45750;-81
2022/02/16 11:40:51;;;;;;;;;1.00;0.00;;;;;14.86;76.95;100001.28;5038086;28;45865;-82
2022/02/16 11:43:19;;;;;;;;;0.00;0.00;;;;;14.87;76.49;100000.31;5020106;28;45891;-80
2022/02/16 11:45:54;;;;;;;;;1.00;1.00;;;;;14.91;76.69;100001.66;5013675;28;47282;-82
2022/02/16 11:48:37;;;;;;;;;0.00;0.00;;;;;14.96;76.20;99990.66;5021969;28;45931;-80
2022/02/16 11:51:34;;;;;;;;;0.50;0.00;;;;;15.00;75.94;100016.59;5028416;28;45615;-79
2022/02/16 11:54:37;;;;;;;;;0.75;0.00;;;;;15.05;75.93;100011.69;5025172;28;47331;-79
2022/02/16 11:57:30;;;;;;;;;0.00;0.00;;;;;15.10;75.43;100008.59;5025890;28;46716;-83
2022/02/16 11:59:57;;;;;;;;;0.00;0.00;;;;;15.12;75.34;99996.88;5027672;28;45759;-79
2022/02/16 12:02:23;;;;;;;;;0.00;0.00;;;;;15.14;75.03;99988.81;5027540;28;45588;-81
2022/02/16 12:04:57;;;;;;;;;0.75;0.25;;;;;15.23;74.85;100009.00;5031557;28;45728;-83
2022/02/16 12:07:31;;;;;;;;;0.00;0.00;;;;;15.24;74.66;99994.84;5029059;28;45556;-80
2022/02/16 12:10:15;;;;;;;;;0.50;0.00;;;;;15.36;74.36;99992.78;5043352;28;46041;-84
2022/02/16 12:12:41;;;;;;;;;0.00;0.00;;;;;15.42;73.95;100000.09;5026038;28;45931;-81
2022/02/16 12:15:09;;;;;;;;;0.00;0.00;;;;;15.53;74.10;100005.13;5034108;28;45661;-79
2022/02/16 12:17:35;;;;;;;;;1.00;0.00;;;;;15.52;73.61;99988.47;5024543;28;45672;-82
2022/02/16 12:20:03;;;;;;;;;0.00;0.00;;;;;15.62;73.05;99979.59;5032542;28;45632;-80
2022/02/16 12:22:29;;;;;;;;;0.00;0.00;;;;;15.68;73.02;100006.22;5033251;28;45770;-83
2022/02/16 12:24:54;;;;;;;;;0.25;0.00;;;;;15.73;72.94;100000.47;5017938;28;45841;-84
2022/02/16 12:27:20;;;;;;;;;0.50;0.00;;;;;15.67;72.52;99974.66;5027570;28;45656;-85
2022/02/16 12:29:47;;;;;;;;;0.00;0.00;;;;;15.80;72.00;100006.78;5018758;28;45721;-83